sensor_id;sensor_type;location;lat;lon;timestamp;pressure;altitude;pressure_sealevel;temperature;humidity
84853;BME280;75109;47.440;19.310;2024-03-08T00:00:17;100274.16;;;6.39;78.17
84853;BME280;75109;47.440;19.310;2024-03-08T00:00:53;100281.94;;;6.37;77.98
84853;BME280;75109;47.440;19.310;2024-03-08T00:01:25;100276.91;;;6.39;78.00
84853;BME280;75109;47.440;19.310;2024-03-08T00:01:58;100282.78;;;6.38;78.13
84853;BME280;75109;47.440;19.310;2024-03-08T00:02:35;100283.09;;;6.36;78.36
84853;BME280;75109;47.440;19.310;2024-03-08T00:03:07;100276.81;;;6.31;78.32
84853;BME280;75109;47.440;19.310;2024-03-08T00:03:40;100280.63;;;6.35;78.48
84853;BME280;75109;47.440;19.310;2024-03-08T00:04:12;100282.28;;;6.36;77.96
84853;BME280;75109;47.440;19.310;2024-03-08T00:05:01;100282.16;;;6.41;78.27
84853;BME280;75109;47.440;19.310;2024-03-08T00:05:33;100280.72;;;6.44;78.36
84853;BME280;75109;47.440;19.310;2024-03-08T00:06:05;100280.41;;;6.45;78.46
84853;BME280;75109;47.440;19.310;2024-03-08T00:06:51;100281.22;;;6.46;78.99
84853;BME280;75109;47.440;19.310;2024-03-08T00:07:25;100282.84;;;6.47;79.36
84853;BME280;75109;47.440;19.310;2024-03-08T00:08:13;100287.59;;;6.46;79.06
84853;BME280;75109;47.440;19.310;2024-03-08T00:08:47;100278.13;;;6.47;78.20
84853;BME280;75109;47.440;19.310;2024-03-08T00:09:20;100286.56;;;6.42;78.19
84853;BME280;75109;47.440;19.310;2024-03-08T00:09:53;100285.09;;;6.45;78.90
84853;BME280;75109;47.440;19.310;2024-03-08T00:10:54;100278.13;;;6.47;78.58
84853;BME280;75109;47.440;19.310;2024-03-08T00:11:48;100279.78;;;6.48;78.39
84853;BME280;75109;47.440;19.310;2024-03-08T00:12:42;100279.38;;;6.41;78.05
84853;BME280;75109;47.440;19.310;2024-03-08T00:13:15;100279.28;;;6.46;78.23
84853;BME280;75109;47.440;19.310;2024-03-08T00:13:47;100275.81;;;6.41;78.99
84853;BME280;75109;47.440;19.310;2024-03-08T00:14:42;100281.94;;;6.37;78.26
84853;BME280;75109;47.440;19.310;2024-03-08T00:15:34;100285.09;;;6.45;77.73
84853;BME280;75109;47.440;19.310;2024-03-08T00:16:20;100278.56;;;6.41;77.73
84853;BME280;75109;47.440;19.310;2024-03-08T00:17:08;100284.13;;;6.41;77.71
84853;BME280;75109;47.440;19.310;2024-03-08T00:18:45;100282.66;;;6.43;77.86
84853;BME280;75109;47.440;19.310;2024-03-08T00:19:17;100287.41;;;6.43;78.35
84853;BME280;75109;47.440;19.310;2024-03-08T00:20:04;100276.59;;;6.41;78.91
84853;BME280;75109;47.440;19.310;2024-03-08T00:20:46;100285.09;;;6.45;78.66
84853;BME280;75109;47.440;19.310;2024-03-08T00:21:18;100280.91;;;6.47;78.82
84853;BME280;75109;47.440;19.310;2024-03-08T00:21:50;100275.88;;;6.49;78.54
84853;BME280;75109;47.440;19.310;2024-03-08T00:22:43;100279.16;;;6.51;78.54
84853;BME280;75109;47.440;19.310;2024-03-08T00:23:15;100278.03;;;6.52;78.38
84853;BME280;75109;47.440;19.310;2024-03-08T00:23:48;100276.50;;;6.46;78.48
84853;BME280;75109;47.440;19.310;2024-03-08T00:24:34;100280.91;;;6.47;77.95
84853;BME280;75109;47.440;19.310;2024-03-08T00:25:07;100281.22;;;6.46;78.22
84853;BME280;75109;47.440;19.310;2024-03-08T00:25:40;100281.63;;;6.39;78.07
84853;BME280;75109;47.440;19.310;2024-03-08T00:26:12;100279.38;;;6.41;77.60
84853;BME280;75109;47.440;19.310;2024-03-08T00:26:45;100273.53;;;6.43;78.17
84853;BME280;75109;47.440;19.310;2024-03-08T00:27:38;100276.31;;;6.43;77.92
84853;BME280;75109;47.440;19.310;2024-03-08T00:28:12;100277.13;;;6.43;77.72
84853;BME280;75109;47.440;19.310;2024-03-08T00:29:01;100273.41;;;6.48;77.78
84853;BME280;75109;47.440;19.310;2024-03-08T00:29:53;100272.28;;;6.49;77.66
84853;BME280;75109;47.440;19.310;2024-03-08T00:30:44;100270.66;;;6.48;78.16
84853;BME280;75109;47.440;19.310;2024-03-08T00:31:17;100268.69;;;6.48;78.84
84853;BME280;75109;47.440;19.310;2024-03-08T00:31:49;100270.84;;;6.51;79.09
84853;BME280;75109;47.440;19.310;2024-03-08T00:32:22;100269.41;;;6.54;79.05
84853;BME280;75109;47.440;19.310;2024-03-08T00:32:56;100272.69;;;6.56;78.18
84853;BME280;75109;47.440;19.310;2024-03-08T00:33:31;100275.13;;;6.57;77.59
84853;BME280;75109;47.440;19.310;2024-03-08T00:34:06;100274.94;;;6.54;77.46
84853;BME280;75109;47.440;19.310;2024-03-08T00:35:01;100271.97;;;6.50;77.84
84853;BME280;75109;47.440;19.310;2024-03-08T00:35:34;100267.75;;;6.53;77.73
84853;BME280;75109;47.440;19.310;2024-03-08T00:36:07;100268.56;;;6.53;78.13
84853;BME280;75109;47.440;19.310;2024-03-08T00:36:55;100269.50;;;6.49;78.62
84853;BME280;75109;47.440;19.310;2024-03-08T00:37:28;100270.31;;;6.49;78.96
84853;BME280;75109;47.440;19.310;2024-03-08T00:38:00;100273.94;;;6.50;78.39
84853;BME280;75109;47.440;19.310;2024-03-08T00:38:52;100268.06;;;6.51;78.36
84853;BME280;75109;47.440;19.310;2024-03-08T00:39:24;100270.53;;;6.53;78.70
84853;BME280;75109;47.440;19.310;2024-03-08T00:39:58;100268.06;;;6.51;77.83
84853;BME280;75109;47.440;19.310;2024-03-08T00:40:31;100264.19;;;6.52;77.83
84853;BME280;75109;47.440;19.310;2024-03-08T00:41:06;100263.66;;;6.50;77.68
84853;BME280;75109;47.440;19.310;2024-03-08T00:41:39;100271.47;;;6.48;78.41
84853;BME280;75109;47.440;19.310;2024-03-08T00:42:11;100268.94;;;6.38;78.11
84853;BME280;75109;47.440;19.310;2024-03-08T00:42:52;100271.06;;;6.41;78.56
84853;BME280;75109;47.440;19.310;2024-03-08T00:43:45;100268.47;;;6.45;78.28
84853;BME280;75109;47.440;19.310;2024-03-08T00:44:19;100261.53;;;6.33;77.62
84853;BME280;75109;47.440;19.310;2024-03-08T00:44:55;100268.72;;;6.34;77.70
84853;BME280;75109;47.440;19.310;2024-03-08T00:45:36;100262.97;;;6.31;77.91
84853;BME280;75109;47.440;19.310;2024-03-08T00:46:08;100261.22;;;6.35;78.34
84853;BME280;75109;47.440;19.310;2024-03-08T00:46:40;100268.94;;;6.38;78.29
84853;BME280;75109;47.440;19.310;2024-03-08T00:47:12;100268.41;;;6.36;78.43
84853;BME280;75109;47.440;19.310;2024-03-08T00:47:45;100259.47;;;6.39;78.29
84853;BME280;75109;47.440;19.310;2024-03-08T00:48:17;100265.53;;;6.41;78.05
84853;BME280;75109;47.440;19.310;2024-03-08T00:48:49;100268.81;;;6.43;78.00
84853;BME280;75109;47.440;19.310;2024-03-08T00:49:23;100264.59;;;6.46;77.73
84853;BME280;75109;47.440;19.310;2024-03-08T00:49:55;100263.38;;;6.38;78.62
84853;BME280;75109;47.440;19.310;2024-03-08T00:50:28;100260.81;;;6.42;78.43
84853;BME280;75109;47.440;19.310;2024-03-08T00:51:00;100265.22;;;6.43;78.62
84853;BME280;75109;47.440;19.310;2024-03-08T00:51:33;100262.25;;;6.39;77.95
84853;BME280;75109;47.440;19.310;2024-03-08T00:52:06;100263.91;;;6.40;78.73
84853;BME280;75109;47.440;19.310;2024-03-08T00:52:52;100268.47;;;6.45;78.66
84853;BME280;75109;47.440;19.310;2024-03-08T00:53:25;100266.22;;;6.47;78.23
84853;BME280;75109;47.440;19.310;2024-03-08T00:53:57;100265.63;;;6.50;78.69
84853;BME280;75109;47.440;19.310;2024-03-08T00:54:30;100260.06;;;6.50;78.75
84853;BME280;75109;47.440;19.310;2024-03-08T00:55:03;100258.72;;;6.47;78.69
84853;BME280;75109;47.440;19.310;2024-03-08T00:55:35;100265.63;;;6.50;78.66
84853;BME280;75109;47.440;19.310;2024-03-08T00:56:07;100270.66;;;6.48;78.02
84853;BME280;75109;47.440;19.310;2024-03-08T00:56:41;100262.00;;;6.49;78.45
84853;BME280;75109;47.440;19.310;2024-03-08T00:57:13;100263.66;;;6.50;78.01
84853;BME280;75109;47.440;19.310;2024-03-08T00:57:47;100261.69;;;6.51;77.88
84853;BME280;75109;47.440;19.310;2024-03-08T00:58:19;100265.09;;;6.48;78.40
84853;BME280;75109;47.440;19.310;2024-03-08T00:58:52;100263.97;;;6.49;78.27
84853;BME280;75109;47.440;19.310;2024-03-08T00:59:26;100266.13;;;6.52;78.59
84853;BME280;75109;47.440;19.310;2024-03-08T00:59:59;100263.34;;;6.52;77.95
84853;BME280;75109;47.440;19.310;2024-03-08T01:00:31;100263.44;;;6.47;77.83
84853;BME280;75109;47.440;19.310;2024-03-08T01:01:04;100263.56;;;6.42;78.11
84853;BME280;75109;47.440;19.310;2024-03-08T01:01:38;100262.88;;;6.36;77.94
84853;BME280;75109;47.440;19.310;2024-03-08T01:02:11;100266.97;;;6.38;78.24
84853;BME280;75109;47.440;19.310;2024-03-08T01:02:43;100262.75;;;6.41;77.85
84853;BME280;75109;47.440;19.310;2024-03-08T01:03:29;100257.66;;;6.34;78.31
84853;BME280;75109;47.440;19.310;2024-03-08T01:04:03;100257.66;;;6.34;78.28
84853;BME280;75109;47.440;19.310;2024-03-08T01:04:39;100256.50;;;6.35;78.55
84853;BME280;75109;47.440;19.310;2024-03-08T01:05:12;100258.34;;;6.40;78.00
84853;BME280;75109;47.440;19.310;2024-03-08T01:05:46;100256.81;;;6.34;77.61
84853;BME280;75109;47.440;19.310;2024-03-08T01:06:32;100260.72;;;6.33;77.81
84853;BME280;75109;47.440;19.310;2024-03-08T01:07:06;100255.69;;;6.35;78.08
84853;BME280;75109;47.440;19.310;2024-03-08T01:07:59;100262.97;;;6.31;78.54
84853;BME280;75109;47.440;19.310;2024-03-08T01:08:32;100258.91;;;6.28;78.08
84853;BME280;75109;47.440;19.310;2024-03-08T01:09:24;100246.78;;;6.24;78.10
84853;BME280;75109;47.440;19.310;2024-03-08T01:09:59;100252.84;;;6.26;78.55
84853;BME280;75109;47.440;19.310;2024-03-08T01:10:32;100258.69;;;6.25;78.47
84853;BME280;75109;47.440;19.310;2024-03-08T01:11:06;100252.53;;;6.28;78.49
84853;BME280;75109;47.440;19.310;2024-03-08T01:11:38;100253.16;;;6.25;77.96
84853;BME280;75109;47.440;19.310;2024-03-08T01:12:11;100253.75;;;6.22;78.59
84853;BME280;75109;47.440;19.310;2024-03-08T01:13:08;100251.00;;;6.22;79.25
84853;BME280;75109;47.440;19.310;2024-03-08T01:14:02;100248.75;;;6.10;78.73
84853;BME280;75109;47.440;19.310;2024-03-08T01:14:36;100251.72;;;6.14;78.22
84853;BME280;75109;47.440;19.310;2024-03-08T01:15:12;100249.47;;;6.16;78.58
84853;BME280;75109;47.440;19.310;2024-03-08T01:15:45;100249.25;;;6.26;78.22
84853;BME280;75109;47.440;19.310;2024-03-08T01:16:17;100246.59;;;6.21;78.51
84853;BME280;75109;47.440;19.310;2024-03-08T01:16:53;100245.91;;;6.15;78.60
84853;BME280;75109;47.440;19.310;2024-03-08T01:17:26;100251.72;;;6.14;78.52
84853;BME280;75109;47.440;19.310;2024-03-08T01:17:59;100245.28;;;6.05;78.44
84853;BME280;75109;47.440;19.310;2024-03-08T01:18:46;100251.97;;;6.04;78.35
84853;BME280;75109;47.440;19.310;2024-03-08T01:19:19;100248.88;;;6.05;78.15
84853;BME280;75109;47.440;19.310;2024-03-08T01:19:53;100254.72;;;6.04;78.59
84853;BME280;75109;47.440;19.310;2024-03-08T01:20:25;100250.09;;;5.99;78.69
84853;BME280;75109;47.440;19.310;2024-03-08T01:21:02;100257.06;;;5.97;78.84
84853;BME280;75109;47.440;19.310;2024-03-08T01:21:34;100248.16;;;6.00;79.03
84853;BME280;75109;47.440;19.310;2024-03-08T01:22:07;100249.47;;;6.02;78.81
84853;BME280;75109;47.440;19.310;2024-03-08T01:22:41;100246.09;;;6.05;78.52
84853;BME280;75109;47.440;19.310;2024-03-08T01:23:21;100247.41;;;6.08;78.80
84853;BME280;75109;47.440;19.310;2024-03-08T01:23:54;100248.44;;;6.12;78.97
84853;BME280;75109;47.440;19.310;2024-03-08T01:24:30;100250.69;;;6.10;78.90
84853;BME280;75109;47.440;19.310;2024-03-08T01:25:04;100254.28;;;6.10;79.17
84853;BME280;75109;47.440;19.310;2024-03-08T01:25:37;100252.75;;;6.04;79.16
84853;BME280;75109;47.440;19.310;2024-03-08T01:26:09;100249.28;;;5.99;79.94
84853;BME280;75109;47.440;19.310;2024-03-08T01:26:41;100251.75;;;5.87;79.05
84853;BME280;75109;47.440;19.310;2024-03-08T01:27:18;100252.75;;;5.91;79.41
84853;BME280;75109;47.440;19.310;2024-03-08T01:27:51;100249.69;;;5.92;79.59
84853;BME280;75109;47.440;19.310;2024-03-08T01:28:26;100258.09;;;6.01;79.54
84853;BME280;75109;47.440;19.310;2024-03-08T01:28:59;100253.91;;;6.03;79.50
84853;BME280;75109;47.440;19.310;2024-03-08T01:29:31;100244.75;;;6.03;79.82
84853;BME280;75109;47.440;19.310;2024-03-08T01:30:06;100254.72;;;6.04;79.39
84853;BME280;75109;47.440;19.310;2024-03-08T01:30:38;100246.09;;;6.05;79.37
84853;BME280;75109;47.440;19.310;2024-03-08T01:31:10;100251.44;;;6.02;79.54
84853;BME280;75109;47.440;19.310;2024-03-08T01:31:42;100243.13;;;6.02;79.51
84853;BME280;75109;47.440;19.310;2024-03-08T01:32:14;100245.47;;;6.08;78.85
84853;BME280;75109;47.440;19.310;2024-03-08T01:32:46;100252.66;;;6.09;78.42
84853;BME280;75109;47.440;19.310;2024-03-08T01:33:18;100246.44;;;6.04;78.42
84853;BME280;75109;47.440;19.310;2024-03-08T01:33:54;100249.91;;;5.96;79.16
84853;BME280;75109;47.440;19.310;2024-03-08T01:34:26;100252.16;;;5.94;79.28
84853;BME280;75109;47.440;19.310;2024-03-08T01:35:16;100252.75;;;5.91;78.25
84853;BME280;75109;47.440;19.310;2024-03-08T01:35:49;100246.63;;;5.94;78.77
84853;BME280;75109;47.440;19.310;2024-03-08T01:36:21;100255.66;;;5.99;78.75
84853;BME280;75109;47.440;19.310;2024-03-08T01:36:53;100246.00;;;5.97;78.71
84853;BME280;75109;47.440;19.310;2024-03-08T01:37:25;100251.47;;;5.88;78.89
84853;BME280;75109;47.440;19.310;2024-03-08T01:37:57;100249.28;;;5.99;78.58
84853;BME280;75109;47.440;19.310;2024-03-08T01:38:29;100242.72;;;5.95;78.62
84853;BME280;75109;47.440;19.310;2024-03-08T01:39:01;100245.69;;;5.85;78.18
84853;BME280;75109;47.440;19.310;2024-03-08T01:39:33;100244.06;;;5.84;78.24
84853;BME280;75109;47.440;19.310;2024-03-08T01:40:07;100247.91;;;5.83;78.96
84853;BME280;75109;47.440;19.310;2024-03-08T01:40:40;100250.31;;;5.89;79.03
84853;BME280;75109;47.440;19.310;2024-03-08T01:41:12;100240.16;;;5.85;78.62
84853;BME280;75109;47.440;19.310;2024-03-08T01:41:45;100246.84;;;5.84;79.21
84853;BME280;75109;47.440;19.310;2024-03-08T01:42:17;100251.75;;;5.87;79.08
84853;BME280;75109;47.440;19.310;2024-03-08T01:42:49;100246.63;;;5.94;79.01
84853;BME280;75109;47.440;19.310;2024-03-08T01:43:23;100248.88;;;5.92;79.03
84853;BME280;75109;47.440;19.310;2024-03-08T01:43:57;100249.69;;;5.92;78.93
84853;BME280;75109;47.440;19.310;2024-03-08T01:44:29;100252.38;;;5.97;79.00
84853;BME280;75109;47.440;19.310;2024-03-08T01:45:02;100253.69;;;6.00;78.87
84853;BME280;75109;47.440;19.310;2024-03-08T01:45:35;100248.03;;;5.78;78.74
84853;BME280;75109;47.440;19.310;2024-03-08T01:46:09;100252.94;;;5.81;78.77
84853;BME280;75109;47.440;19.310;2024-03-08T01:46:41;100255.13;;;5.84;79.33
84853;BME280;75109;47.440;19.310;2024-03-08T01:47:14;100250.63;;;5.88;78.56
84853;BME280;75109;47.440;19.310;2024-03-08T01:47:47;100242.63;;;5.86;79.10
84853;BME280;75109;47.440;19.310;2024-03-08T01:48:20;100249.59;;;5.84;79.25
84853;BME280;75109;47.440;19.310;2024-03-08T01:49:11;100246.72;;;5.89;79.56
84853;BME280;75109;47.440;19.310;2024-03-08T01:49:45;100244.91;;;5.84;79.30
84853;BME280;75109;47.440;19.310;2024-03-08T01:50:18;100258.31;;;5.91;79.04
84853;BME280;75109;47.440;19.310;2024-03-08T01:50:57;100250.19;;;5.94;78.86
84853;BME280;75109;47.440;19.310;2024-03-08T01:51:29;100247.22;;;5.91;78.68
84853;BME280;75109;47.440;19.310;2024-03-08T01:52:23;100236.97;;;5.91;78.83
84853;BME280;75109;47.440;19.310;2024-03-08T01:53:10;100242.63;;;5.86;78.41
84853;BME280;75109;47.440;19.310;2024-03-08T01:53:48;100245.56;;;5.76;78.88
84853;BME280;75109;47.440;19.310;2024-03-08T01:54:20;100244.63;;;5.81;79.22
84853;BME280;75109;47.440;19.310;2024-03-08T01:55:03;100243.63;;;5.77;78.79
84853;BME280;75109;47.440;19.310;2024-03-08T01:55:58;100246.28;;;5.68;78.97
84853;BME280;75109;47.440;19.310;2024-03-08T01:56:51;100247.31;;;5.72;79.42
84853;BME280;75109;47.440;19.310;2024-03-08T01:57:25;100245.59;;;5.90;78.12
84853;BME280;75109;47.440;19.310;2024-03-08T01:58:17;100240.03;;;5.76;78.76
84853;BME280;75109;47.440;19.310;2024-03-08T01:58:54;100243.63;;;5.77;78.95
84853;BME280;75109;47.440;19.310;2024-03-08T01:59:28;100243.13;;;5.75;79.02
84853;BME280;75109;47.440;19.310;2024-03-08T02:00:25;100248.22;;;5.81;78.88
84853;BME280;75109;47.440;19.310;2024-03-08T02:01:03;100253.19;;;5.84;79.01
84853;BME280;75109;47.440;19.310;2024-03-08T02:02:09;100245.69;;;5.85;78.96
84853;BME280;75109;47.440;19.310;2024-03-08T02:03:15;100243.16;;;5.88;79.48
84853;BME280;75109;47.440;19.310;2024-03-08T02:04:28;100243.84;;;5.94;78.80
84853;BME280;75109;47.440;19.310;2024-03-08T02:05:38;100241.97;;;5.76;79.19
84853;BME280;75109;47.440;19.310;2024-03-08T02:06:31;100244.44;;;5.77;79.44
84853;BME280;75109;47.440;19.310;2024-03-08T02:07:17;100244.34;;;5.82;79.46
84853;BME280;75109;47.440;19.310;2024-03-08T02:07:53;100246.28;;;5.82;79.47
84853;BME280;75109;47.440;19.310;2024-03-08T02:08:46;100238.63;;;5.79;79.23
84853;BME280;75109;47.440;19.310;2024-03-08T02:09:19;100239.94;;;5.81;79.38
84853;BME280;75109;47.440;19.310;2024-03-08T02:09:51;100240.47;;;5.83;79.92
84853;BME280;75109;47.440;19.310;2024-03-08T02:10:23;100239.03;;;5.86;79.49
84853;BME280;75109;47.440;19.310;2024-03-08T02:11:18;100239.75;;;5.91;78.80
84853;BME280;75109;47.440;19.310;2024-03-08T02:11:52;100243.03;;;5.93;79.51
84853;BME280;75109;47.440;19.310;2024-03-08T02:12:40;100246.91;;;5.92;78.66
84853;BME280;75109;47.440;19.310;2024-03-08T02:13:29;100246.91;;;5.92;78.41
84853;BME280;75109;47.440;19.310;2024-03-08T02:14:15;100250.69;;;5.83;78.88
84853;BME280;75109;47.440;19.310;2024-03-08T02:14:48;100253.44;;;5.69;78.62
84853;BME280;75109;47.440;19.310;2024-03-08T02:15:20;100244.22;;;5.74;79.03
84853;BME280;75109;47.440;19.310;2024-03-08T02:15:54;100249.56;;;5.70;79.08
84853;BME280;75109;47.440;19.310;2024-03-08T02:16:41;100250.78;;;5.64;79.42
84853;BME280;75109;47.440;19.310;2024-03-08T02:17:27;100246.59;;;5.67;79.41
84853;BME280;75109;47.440;19.310;2024-03-08T02:18:14;100253.75;;;5.68;79.69
84853;BME280;75109;47.440;19.310;2024-03-08T02:18:47;100254.59;;;5.68;79.33
84853;BME280;75109;47.440;19.310;2024-03-08T02:19:19;100249.25;;;5.72;79.24
84853;BME280;75109;47.440;19.310;2024-03-08T02:19:51;100245.78;;;5.66;79.46
84853;BME280;75109;47.440;19.310;2024-03-08T02:20:29;100246.50;;;5.72;79.13
84853;BME280;75109;47.440;19.310;2024-03-08T02:21:10;100245.06;;;5.74;78.83
84853;BME280;75109;47.440;19.310;2024-03-08T02:21:57;100250.91;;;5.73;79.10
84853;BME280;75109;47.440;19.310;2024-03-08T02:22:36;100245.88;;;5.75;78.54
84853;BME280;75109;47.440;19.310;2024-03-08T02:23:09;100245.88;;;5.75;78.90
84853;BME280;75109;47.440;19.310;2024-03-08T02:23:41;100248.16;;;5.73;79.01
84853;BME280;75109;47.440;19.310;2024-03-08T02:24:15;100245.97;;;5.70;79.13
84853;BME280;75109;47.440;19.310;2024-03-08T02:24:55;100241.06;;;5.67;79.36
84853;BME280;75109;47.440;19.310;2024-03-08T02:25:30;100249.16;;;5.77;79.01
84853;BME280;75109;47.440;19.310;2024-03-08T02:26:07;100247.31;;;5.72;79.22
84853;BME280;75109;47.440;19.310;2024-03-08T02:26:39;100247.41;;;5.67;79.66
84853;BME280;75109;47.440;19.310;2024-03-08T02:27:11;100246.28;;;5.68;79.74
84853;BME280;75109;47.440;19.310;2024-03-08T02:27:44;100249.38;;;5.67;79.43
84853;BME280;75109;47.440;19.310;2024-03-08T02:28:36;100247.13;;;5.69;79.04
84853;BME280;75109;47.440;19.310;2024-03-08T02:29:45;100249.97;;;5.64;79.15
84853;BME280;75109;47.440;19.310;2024-03-08T02:30:51;100242.50;;;5.78;78.38
84853;BME280;75109;47.440;19.310;2024-03-08T02:31:26;100248.16;;;5.73;78.55
84853;BME280;75109;47.440;19.310;2024-03-08T02:31:58;100250.41;;;5.71;78.50
84853;BME280;75109;47.440;19.310;2024-03-08T02:32:50;100248.53;;;5.66;78.65
84853;BME280;75109;47.440;19.310;2024-03-08T02:33:25;100246.81;;;5.70;78.27
84853;BME280;75109;47.440;19.310;2024-03-08T02:33:58;100245.88;;;5.61;78.82
84853;BME280;75109;47.440;19.310;2024-03-08T02:34:32;100249.66;;;5.52;79.18
84853;BME280;75109;47.440;19.310;2024-03-08T02:35:07;100249.34;;;5.39;79.32
84853;BME280;75109;47.440;19.310;2024-03-08T02:35:58;100250.28;;;5.62;78.91
84853;BME280;75109;47.440;19.310;2024-03-08T02:36:30;100243.53;;;5.68;78.76
84853;BME280;75109;47.440;19.310;2024-03-08T02:37:08;100245.38;;;5.59;78.74
84853;BME280;75109;47.440;19.310;2024-03-08T02:37:41;100251.69;;;5.60;78.82
84853;BME280;75109;47.440;19.310;2024-03-08T02:38:27;100242.09;;;5.57;79.07
84853;BME280;75109;47.440;19.310;2024-03-08T02:39:13;100243.63;;;5.63;78.26
84853;BME280;75109;47.440;19.310;2024-03-08T02:39:51;100247.63;;;5.71;77.79
84853;BME280;75109;47.440;19.310;2024-03-08T02:40:24;100244.16;;;5.65;78.04
84853;BME280;75109;47.440;19.310;2024-03-08T02:41:10;100246.59;;;5.53;78.55
84853;BME280;75109;47.440;19.310;2024-03-08T02:41:57;100248.72;;;5.56;79.15
84853;BME280;75109;47.440;19.310;2024-03-08T02:42:29;100240.75;;;5.55;79.10
84853;BME280;75109;47.440;19.310;2024-03-08T02:43:35;100244.34;;;5.55;79.19
84853;BME280;75109;47.440;19.310;2024-03-08T02:44:09;100253.34;;;5.61;79.13
84853;BME280;75109;47.440;19.310;2024-03-08T02:45:02;100242.88;;;5.71;78.24
84853;BME280;75109;47.440;19.310;2024-03-08T02:45:34;100248.94;;;5.73;77.94
84853;BME280;75109;47.440;19.310;2024-03-08T02:46:07;100248.53;;;5.66;77.85
84853;BME280;75109;47.440;19.310;2024-03-08T02:46:41;100245.38;;;5.73;77.92
84853;BME280;75109;47.440;19.310;2024-03-08T02:47:15;100244.75;;;5.76;77.67
84853;BME280;75109;47.440;19.310;2024-03-08T02:48:06;100243.91;;;5.62;78.29
84853;BME280;75109;47.440;19.310;2024-03-08T02:48:38;100244.03;;;5.57;79.12
84853;BME280;75109;47.440;19.310;2024-03-08T02:49:12;100245.13;;;5.56;79.01
84853;BME280;75109;47.440;19.310;2024-03-08T02:49:45;100248.31;;;5.49;79.12
84853;BME280;75109;47.440;19.310;2024-03-08T02:50:26;100247.81;;;5.61;78.87
84853;BME280;75109;47.440;19.310;2024-03-08T02:51:21;100252.13;;;5.67;78.60
84853;BME280;75109;47.440;19.310;2024-03-08T02:52:14;100242.38;;;5.69;78.39
84853;BME280;75109;47.440;19.310;2024-03-08T02:53:07;100246.59;;;5.67;79.01
84853;BME280;75109;47.440;19.310;2024-03-08T02:53:59;100251.09;;;5.63;78.22
84853;BME280;75109;47.440;19.310;2024-03-08T02:54:31;100244.94;;;5.52;78.74
84853;BME280;75109;47.440;19.310;2024-03-08T02:55:04;100246.28;;;5.55;78.98
84853;BME280;75109;47.440;19.310;2024-03-08T02:55:38;100251.28;;;5.53;78.84
84853;BME280;75109;47.440;19.310;2024-03-08T02:56:30;100248.66;;;5.61;78.84
84853;BME280;75109;47.440;19.310;2024-03-08T02:57:29;100255.81;;;5.62;78.48
84853;BME280;75109;47.440;19.310;2024-03-08T02:58:04;100251.19;;;5.58;78.69
84853;BME280;75109;47.440;19.310;2024-03-08T02:58:36;100245.06;;;5.61;78.53
84853;BME280;75109;47.440;19.310;2024-03-08T02:59:13;100249.56;;;5.57;78.80
84853;BME280;75109;47.440;19.310;2024-03-08T03:00:06;100247.38;;;5.53;79.19
84853;BME280;75109;47.440;19.310;2024-03-08T03:00:54;100264.81;;;5.68;78.78
84853;BME280;75109;47.440;19.310;2024-03-08T03:01:49;100254.38;;;5.65;78.45
84853;BME280;75109;47.440;19.310;2024-03-08T03:02:36;100256.19;;;5.56;78.52
84853;BME280;75109;47.440;19.310;2024-03-08T03:03:23;100253.16;;;5.57;78.68
84853;BME280;75109;47.440;19.310;2024-03-08T03:03:55;100253.94;;;5.58;78.74
84853;BME280;75109;47.440;19.310;2024-03-08T03:04:30;100252.13;;;5.67;78.01
84853;BME280;75109;47.440;19.310;2024-03-08T03:05:02;100260.13;;;5.68;78.40
84853;BME280;75109;47.440;19.310;2024-03-08T03:05:38;100253.44;;;5.56;78.19
84853;BME280;75109;47.440;19.310;2024-03-08T03:06:14;100252.63;;;5.55;78.43
84853;BME280;75109;47.440;19.310;2024-03-08T03:07:12;100252.50;;;5.46;78.50
84853;BME280;75109;47.440;19.310;2024-03-08T03:08:18;100258.03;;;5.46;78.53
84853;BME280;75109;47.440;19.310;2024-03-08T03:09:19;100260.94;;;5.55;78.90
84853;BME280;75109;47.440;19.310;2024-03-08T03:10:13;100259.47;;;5.58;78.68
84853;BME280;75109;47.440;19.310;2024-03-08T03:10:49;100259.59;;;5.53;79.06
84853;BME280;75109;47.440;19.310;2024-03-08T03:11:23;100259.47;;;5.58;79.06
84853;BME280;75109;47.440;19.310;2024-03-08T03:12:10;100259.81;;;5.56;78.87
84853;BME280;75109;47.440;19.310;2024-03-08T03:13:04;100257.88;;;5.57;78.81
84853;BME280;75109;47.440;19.310;2024-03-08T03:13:41;100264.81;;;5.54;78.91
84853;BME280;75109;47.440;19.310;2024-03-08T03:14:14;100263.50;;;5.52;78.84
84853;BME280;75109;47.440;19.310;2024-03-08T03:14:52;100264.63;;;5.50;79.20
84853;BME280;75109;47.440;19.310;2024-03-08T03:15:24;100259.81;;;5.56;79.04
84853;BME280;75109;47.440;19.310;2024-03-08T03:15:58;100261.47;;;5.57;79.27
84853;BME280;75109;47.440;19.310;2024-03-08T03:16:30;100261.03;;;5.64;79.08
84853;BME280;75109;47.440;19.310;2024-03-08T03:17:22;100261.72;;;5.56;79.17
84853;BME280;75109;47.440;19.310;2024-03-08T03:17:54;100261.72;;;5.56;79.15
84853;BME280;75109;47.440;19.310;2024-03-08T03:18:27;100256.31;;;5.50;79.05
84853;BME280;75109;47.440;19.310;2024-03-08T03:19:00;100265.25;;;5.47;79.37
84853;BME280;75109;47.440;19.310;2024-03-08T03:19:33;100261.66;;;5.47;79.12
84853;BME280;75109;47.440;19.310;2024-03-08T03:20:15;100272.59;;;5.52;78.99
84853;BME280;75109;47.440;19.310;2024-03-08T03:21:08;100264.13;;;5.62;78.50
84853;BME280;75109;47.440;19.310;2024-03-08T03:21:40;100264.31;;;5.66;78.49
84853;BME280;75109;47.440;19.310;2024-03-08T03:22:21;100262.38;;;5.66;78.24
84853;BME280;75109;47.440;19.310;2024-03-08T03:22:54;100258.56;;;5.62;78.77
84853;BME280;75109;47.440;19.310;2024-03-08T03:23:28;100263.09;;;5.58;78.83